sensor_id;sensor_type;location;lat;lon;timestamp;P1;durP1;ratioP1;P2;durP2;ratioP2
19651;SDS011;9974;52.146;14.668;2023-07-20T00:00:45;4.35;;;2.83;;
19651;SDS011;9974;52.146;14.668;2023-07-20T00:03:11;4.95;;;3.10;;
19651;SDS011;9974;52.146;14.668;2023-07-20T00:05:42;11.27;;;3.80;;
19651;SDS011;9974;52.146;14.668;2023-07-20T00:08:09;7.85;;;3.33;;
19651;SDS011;9974;52.146;14.668;2023-07-20T00:10:34;4.45;;;2.60;;
19651;SDS011;9974;52.146;14.668;2023-07-20T00:13:00;6.00;;;2.60;;
19651;SDS011;9974;52.146;14.668;2023-07-20T00:15:26;7.70;;;2.85;;
19651;SDS011;9974;52.146;14.668;2023-07-20T00:17:52;8.30;;;2.67;;
19651;SDS011;9974;52.146;14.668;2023-07-20T00:20:17;5.30;;;2.70;;
19651;SDS011;9974;52.146;14.668;2023-07-20T00:22:43;3.83;;;2.58;;
19651;SDS011;9974;52.146;14.668;2023-07-20T00:25:09;6.72;;;3.03;;
19651;SDS011;9974;52.146;14.668;2023-07-20T00:27:36;7.47;;;3.22;;
19651;SDS011;9974;52.146;14.668;2023-07-20T00:30:03;5.75;;;2.92;;
19651;SDS011;9974;52.146;14.668;2023-07-20T00:32:30;3.90;;;2.40;;
19651;SDS011;9974;52.146;14.668;2023-07-20T00:34:55;6.07;;;2.58;;
19651;SDS011;9974;52.146;14.668;2023-07-20T00:37:21;3.40;;;2.05;;
19651;SDS011;9974;52.146;14.668;2023-07-20T00:39:47;3.65;;;2.17;;
19651;SDS011;9974;52.146;14.668;2023-07-20T00:42:13;4.50;;;2.35;;
19651;SDS011;9974;52.146;14.668;2023-07-20T00:44:38;3.20;;;2.22;;
19651;SDS011;9974;52.146;14.668;2023-07-20T00:47:04;3.53;;;1.73;;
19651;SDS011;9974;52.146;14.668;2023-07-20T00:49:31;4.30;;;1.70;;
19651;SDS011;9974;52.146;14.668;2023-07-20T00:51:58;2.40;;;1.50;;
19651;SDS011;9974;52.146;14.668;2023-07-20T00:54:26;5.90;;;2.40;;
19651;SDS011;9974;52.146;14.668;2023-07-20T00:56:53;6.03;;;1.77;;
19651;SDS011;9974;52.146;14.668;2023-07-20T00:59:19;4.65;;;1.50;;
19651;SDS011;9974;52.146;14.668;2023-07-20T01:01:46;9.18;;;1.80;;
19651;SDS011;9974;52.146;14.668;2023-07-20T01:04:12;3.15;;;1.85;;
19651;SDS011;9974;52.146;14.668;2023-07-20T01:09:09;3.83;;;1.20;;
19651;SDS011;9974;52.146;14.668;2023-07-20T01:14:32;1.50;;;1.05;;
19651;SDS011;9974;52.146;14.668;2023-07-20T01:16:59;4.97;;;1.67;;
19651;SDS011;9974;52.146;14.668;2023-07-20T01:19:26;3.10;;;1.40;;
19651;SDS011;9974;52.146;14.668;2023-07-20T01:25:10;1.63;;;1.20;;
19651;SDS011;9974;52.146;14.668;2023-07-20T01:31:25;3.03;;;1.63;;
19651;SDS011;9974;52.146;14.668;2023-07-20T01:33:56;4.25;;;1.45;;
19651;SDS011;9974;52.146;14.668;2023-07-20T01:36:24;5.57;;;2.00;;
19651;SDS011;9974;52.146;14.668;2023-07-20T01:38:52;2.35;;;1.48;;
19651;SDS011;9974;52.146;14.668;2023-07-20T01:41:18;4.53;;;1.85;;
19651;SDS011;9974;52.146;14.668;2023-07-20T01:43:44;2.15;;;1.63;;
19651;SDS011;9974;52.146;14.668;2023-07-20T01:46:10;1.85;;;1.30;;
19651;SDS011;9974;52.146;14.668;2023-07-20T01:48:36;4.93;;;1.85;;
19651;SDS011;9974;52.146;14.668;2023-07-20T01:51:02;4.70;;;1.88;;
19651;SDS011;9974;52.146;14.668;2023-07-20T01:53:28;4.32;;;1.80;;
19651;SDS011;9974;52.146;14.668;2023-07-20T01:55:54;3.88;;;1.90;;
19651;SDS011;9974;52.146;14.668;2023-07-20T01:58:20;2.50;;;1.52;;
19651;SDS011;9974;52.146;14.668;2023-07-20T02:00:46;3.80;;;2.10;;
19651;SDS011;9974;52.146;14.668;2023-07-20T02:03:11;5.15;;;2.88;;
19651;SDS011;9974;52.146;14.668;2023-07-20T02:05:37;3.90;;;2.50;;
19651;SDS011;9974;52.146;14.668;2023-07-20T02:08:03;2.92;;;2.17;;
19651;SDS011;9974;52.146;14.668;2023-07-20T02:10:29;3.42;;;2.05;;
19651;SDS011;9974;52.146;14.668;2023-07-20T02:12:54;3.13;;;2.10;;
19651;SDS011;9974;52.146;14.668;2023-07-20T02:15:20;2.72;;;1.65;;
19651;SDS011;9974;52.146;14.668;2023-07-20T02:17:46;3.22;;;2.38;;
19651;SDS011;9974;52.146;14.668;2023-07-20T02:20:12;5.70;;;3.55;;
19651;SDS011;9974;52.146;14.668;2023-07-20T02:22:38;3.15;;;1.92;;
19651;SDS011;9974;52.146;14.668;2023-07-20T02:25:05;3.13;;;1.98;;
19651;SDS011;9974;52.146;14.668;2023-07-20T02:27:32;5.32;;;2.40;;
19651;SDS011;9974;52.146;14.668;2023-07-20T02:29:58;5.65;;;4.18;;
19651;SDS011;9974;52.146;14.668;2023-07-20T02:32:24;3.55;;;2.17;;
19651;SDS011;9974;52.146;14.668;2023-07-20T02:34:50;3.75;;;2.20;;
19651;SDS011;9974;52.146;14.668;2023-07-20T02:37:16;2.90;;;2.45;;
19651;SDS011;9974;52.146;14.668;2023-07-20T02:39:42;3.15;;;2.03;;
19651;SDS011;9974;52.146;14.668;2023-07-20T02:42:08;3.88;;;2.30;;
19651;SDS011;9974;52.146;14.668;2023-07-20T02:44:34;3.17;;;2.03;;
19651;SDS011;9974;52.146;14.668;2023-07-20T02:46:59;3.90;;;2.13;;
19651;SDS011;9974;52.146;14.668;2023-07-20T02:49:26;5.85;;;2.33;;
19651;SDS011;9974;52.146;14.668;2023-07-20T02:51:52;2.92;;;2.05;;
19651;SDS011;9974;52.146;14.668;2023-07-20T02:54:17;7.50;;;3.05;;
19651;SDS011;9974;52.146;14.668;2023-07-20T02:56:43;4.85;;;2.50;;
19651;SDS011;9974;52.146;14.668;2023-07-20T02:59:09;3.50;;;2.42;;
19651;SDS011;9974;52.146;14.668;2023-07-20T03:01:35;3.53;;;2.30;;
19651;SDS011;9974;52.146;14.668;2023-07-20T03:04:01;3.38;;;2.50;;
19651;SDS011;9974;52.146;14.668;2023-07-20T03:06:27;4.15;;;2.58;;
19651;SDS011;9974;52.146;14.668;2023-07-20T03:08:53;4.00;;;2.33;;
19651;SDS011;9974;52.146;14.668;2023-07-20T03:11:19;4.18;;;2.60;;
19651;SDS011;9974;52.146;14.668;2023-07-20T03:13:45;4.70;;;3.28;;
19651;SDS011;9974;52.146;14.668;2023-07-20T03:16:12;5.05;;;3.13;;
19651;SDS011;9974;52.146;14.668;2023-07-20T03:18:41;5.70;;;2.55;;
19651;SDS011;9974;52.146;14.668;2023-07-20T03:21:07;7.20;;;3.53;;
19651;SDS011;9974;52.146;14.668;2023-07-20T03:23:36;5.93;;;3.80;;
19651;SDS011;9974;52.146;14.668;2023-07-20T03:26:02;5.40;;;3.55;;
19651;SDS011;9974;52.146;14.668;2023-07-20T03:28:27;5.15;;;3.90;;
19651;SDS011;9974;52.146;14.668;2023-07-20T03:30:53;5.97;;;3.08;;
19651;SDS011;9974;52.146;14.668;2023-07-20T03:33:24;5.22;;;3.47;;
19651;SDS011;9974;52.146;14.668;2023-07-20T03:35:52;4.80;;;3.25;;
19651;SDS011;9974;52.146;14.668;2023-07-20T03:38:18;6.15;;;4.00;;
19651;SDS011;9974;52.146;14.668;2023-07-20T03:40:58;9.68;;;3.78;;
19651;SDS011;9974;52.146;14.668;2023-07-20T03:43:26;6.47;;;4.18;;
19651;SDS011;9974;52.146;14.668;2023-07-20T03:45:53;6.90;;;3.95;;
19651;SDS011;9974;52.146;14.668;2023-07-20T03:48:21;7.18;;;3.70;;
19651;SDS011;9974;52.146;14.668;2023-07-20T03:50:48;5.50;;;4.10;;
19651;SDS011;9974;52.146;14.668;2023-07-20T03:53:16;5.65;;;3.75;;
19651;SDS011;9974;52.146;14.668;2023-07-20T03:55:46;7.32;;;4.50;;
19651;SDS011;9974;52.146;14.668;2023-07-20T03:58:13;5.22;;;4.05;;
19651;SDS011;9974;52.146;14.668;2023-07-20T04:00:39;6.78;;;4.10;;
19651;SDS011;9974;52.146;14.668;2023-07-20T04:03:09;7.25;;;4.88;;
19651;SDS011;9974;52.146;14.668;2023-07-20T04:05:35;6.03;;;4.15;;
19651;SDS011;9974;52.146;14.668;2023-07-20T04:08:00;6.72;;;4.38;;
19651;SDS011;9974;52.146;14.668;2023-07-20T04:10:26;7.10;;;4.38;;
19651;SDS011;9974;52.146;14.668;2023-07-20T04:12:52;6.70;;;5.35;;
19651;SDS011;9974;52.146;14.668;2023-07-20T04:15:18;7.43;;;5.60;;
19651;SDS011;9974;52.146;14.668;2023-07-20T04:17:44;7.07;;;4.95;;
19651;SDS011;9974;52.146;14.668;2023-07-20T04:20:10;7.45;;;5.35;;
19651;SDS011;9974;52.146;14.668;2023-07-20T04:22:36;6.32;;;4.88;;
19651;SDS011;9974;52.146;14.668;2023-07-20T04:25:02;5.90;;;4.85;;
19651;SDS011;9974;52.146;14.668;2023-07-20T04:27:29;6.43;;;5.32;;
19651;SDS011;9974;52.146;14.668;2023-07-20T04:29:55;7.00;;;5.68;;
19651;SDS011;9974;52.146;14.668;2023-07-20T04:32:24;8.55;;;5.97;;
19651;SDS011;9974;52.146;14.668;2023-07-20T04:34:51;8.98;;;6.10;;
19651;SDS011;9974;52.146;14.668;2023-07-20T04:37:16;9.27;;;6.30;;
19651;SDS011;9974;52.146;14.668;2023-07-20T04:39:42;8.10;;;6.15;;
19651;SDS011;9974;52.146;14.668;2023-07-20T04:42:08;8.02;;;6.13;;
19651;SDS011;9974;52.146;14.668;2023-07-20T04:44:34;11.73;;;7.63;;
19651;SDS011;9974;52.146;14.668;2023-07-20T04:47:00;12.80;;;7.75;;
19651;SDS011;9974;52.146;14.668;2023-07-20T04:49:25;10.55;;;7.68;;
19651;SDS011;9974;52.146;14.668;2023-07-20T04:51:51;10.13;;;8.27;;
19651;SDS011;9974;52.146;14.668;2023-07-20T04:54:17;8.18;;;6.78;;
19651;SDS011;9974;52.146;14.668;2023-07-20T04:56:44;12.23;;;7.60;;
19651;SDS011;9974;52.146;14.668;2023-07-20T04:59:09;9.45;;;6.65;;
19651;SDS011;9974;52.146;14.668;2023-07-20T05:01:35;9.60;;;6.18;;
19651;SDS011;9974;52.146;14.668;2023-07-20T05:04:01;8.82;;;6.30;;
19651;SDS011;9974;52.146;14.668;2023-07-20T05:06:27;8.05;;;6.30;;
19651;SDS011;9974;52.146;14.668;2023-07-20T05:08:53;8.60;;;5.78;;
19651;SDS011;9974;52.146;14.668;2023-07-20T05:11:18;12.27;;;5.88;;
19651;SDS011;9974;52.146;14.668;2023-07-20T05:13:44;6.28;;;4.78;;
19651;SDS011;9974;52.146;14.668;2023-07-20T05:16:10;6.43;;;4.78;;
19651;SDS011;9974;52.146;14.668;2023-07-20T05:18:36;7.35;;;4.78;;
19651;SDS011;9974;52.146;14.668;2023-07-20T05:21:02;7.45;;;4.75;;
19651;SDS011;9974;52.146;14.668;2023-07-20T05:23:28;6.93;;;4.20;;
19651;SDS011;9974;52.146;14.668;2023-07-20T05:25:58;8.23;;;4.15;;
19651;SDS011;9974;52.146;14.668;2023-07-20T05:28:24;8.43;;;4.10;;
19651;SDS011;9974;52.146;14.668;2023-07-20T05:30:51;7.13;;;4.60;;
19651;SDS011;9974;52.146;14.668;2023-07-20T05:33:18;6.22;;;4.22;;
19651;SDS011;9974;52.146;14.668;2023-07-20T05:35:44;6.70;;;3.90;;
19651;SDS011;9974;52.146;14.668;2023-07-20T05:38:10;10.68;;;4.35;;
19651;SDS011;9974;52.146;14.668;2023-07-20T05:40:40;7.30;;;3.88;;
19651;SDS011;9974;52.146;14.668;2023-07-20T05:43:10;5.43;;;4.07;;
19651;SDS011;9974;52.146;14.668;2023-07-20T05:45:36;9.35;;;4.10;;
19651;SDS011;9974;52.146;14.668;2023-07-20T05:48:02;6.53;;;4.10;;
19651;SDS011;9974;52.146;14.668;2023-07-20T05:50:28;6.32;;;4.78;;
19651;SDS011;9974;52.146;14.668;2023-07-20T05:52:54;6.05;;;4.82;;
19651;SDS011;9974;52.146;14.668;2023-07-20T05:55:20;7.75;;;5.43;;
19651;SDS011;9974;52.146;14.668;2023-07-20T05:57:46;5.65;;;4.85;;
19651;SDS011;9974;52.146;14.668;2023-07-20T06:00:13;5.45;;;4.35;;
19651;SDS011;9974;52.146;14.668;2023-07-20T06:02:39;6.18;;;4.90;;
19651;SDS011;9974;52.146;14.668;2023-07-20T06:05:06;5.63;;;4.40;;
19651;SDS011;9974;52.146;14.668;2023-07-20T06:07:34;7.28;;;5.18;;
19651;SDS011;9974;52.146;14.668;2023-07-20T06:10:01;6.53;;;5.00;;
19651;SDS011;9974;52.146;14.668;2023-07-20T06:12:27;7.57;;;5.50;;
19651;SDS011;9974;52.146;14.668;2023-07-20T06:14:53;6.05;;;4.95;;
19651;SDS011;9974;52.146;14.668;2023-07-20T06:17:19;12.10;;;4.63;;
19651;SDS011;9974;52.146;14.668;2023-07-20T06:19:45;6.63;;;5.45;;
19651;SDS011;9974;52.146;14.668;2023-07-20T06:22:11;9.15;;;5.47;;
19651;SDS011;9974;52.146;14.668;2023-07-20T06:24:37;9.20;;;5.00;;
19651;SDS011;9974;52.146;14.668;2023-07-20T06:27:03;7.30;;;5.90;;
19651;SDS011;9974;52.146;14.668;2023-07-20T06:29:30;6.35;;;5.32;;
19651;SDS011;9974;52.146;14.668;2023-07-20T06:31:56;11.82;;;5.25;;
19651;SDS011;9974;52.146;14.668;2023-07-20T06:34:22;7.03;;;5.38;;
19651;SDS011;9974;52.146;14.668;2023-07-20T06:36:48;6.80;;;5.13;;
19651;SDS011;9974;52.146;14.668;2023-07-20T06:39:14;6.38;;;4.85;;
19651;SDS011;9974;52.146;14.668;2023-07-20T06:41:39;8.70;;;5.38;;
19651;SDS011;9974;52.146;14.668;2023-07-20T06:44:05;10.20;;;5.70;;
19651;SDS011;9974;52.146;14.668;2023-07-20T06:46:32;6.00;;;5.00;;
19651;SDS011;9974;52.146;14.668;2023-07-20T06:48:58;7.35;;;4.63;;
19651;SDS011;9974;52.146;14.668;2023-07-20T06:51:24;6.53;;;5.20;;
19651;SDS011;9974;52.146;14.668;2023-07-20T06:53:51;8.05;;;4.70;;
19651;SDS011;9974;52.146;14.668;2023-07-20T06:56:17;7.47;;;4.45;;
19651;SDS011;9974;52.146;14.668;2023-07-20T06:58:43;9.10;;;5.40;;
19651;SDS011;9974;52.146;14.668;2023-07-20T07:01:09;11.07;;;5.82;;
19651;SDS011;9974;52.146;14.668;2023-07-20T07:03:34;7.30;;;4.78;;
19651;SDS011;9974;52.146;14.668;2023-07-20T07:06:01;7.00;;;4.82;;
19651;SDS011;9974;52.146;14.668;2023-07-20T07:08:28;7.90;;;5.20;;
19651;SDS011;9974;52.146;14.668;2023-07-20T07:10:54;6.78;;;4.57;;
19651;SDS011;9974;52.146;14.668;2023-07-20T07:13:19;7.82;;;5.10;;
19651;SDS011;9974;52.146;14.668;2023-07-20T07:15:45;4.97;;;4.07;;
19651;SDS011;9974;52.146;14.668;2023-07-20T07:18:11;9.18;;;3.90;;
19651;SDS011;9974;52.146;14.668;2023-07-20T07:20:37;5.03;;;3.80;;
19651;SDS011;9974;52.146;14.668;2023-07-20T07:23:03;8.00;;;4.93;;
19651;SDS011;9974;52.146;14.668;2023-07-20T07:25:28;5.40;;;4.43;;
19651;SDS011;9974;52.146;14.668;2023-07-20T07:27:56;7.63;;;3.85;;
19651;SDS011;9974;52.146;14.668;2023-07-20T07:30:22;5.55;;;3.53;;
19651;SDS011;9974;52.146;14.668;2023-07-20T07:32:48;7.18;;;4.47;;
19651;SDS011;9974;52.146;14.668;2023-07-20T07:35:14;5.50;;;3.67;;
19651;SDS011;9974;52.146;14.668;2023-07-20T07:37:39;4.95;;;3.92;;
19651;SDS011;9974;52.146;14.668;2023-07-20T07:40:06;7.30;;;4.55;;
19651;SDS011;9974;52.146;14.668;2023-07-20T07:42:33;7.65;;;4.15;;
19651;SDS011;9974;52.146;14.668;2023-07-20T07:44:58;4.15;;;3.45;;
19651;SDS011;9974;52.146;14.668;2023-07-20T07:47:24;4.68;;;3.40;;
19651;SDS011;9974;52.146;14.668;2023-07-20T07:49:50;6.07;;;4.00;;
19651;SDS011;9974;52.146;14.668;2023-07-20T07:52:16;7.07;;;3.47;;
19651;SDS011;9974;52.146;14.668;2023-07-20T07:54:42;8.60;;;4.03;;
19651;SDS011;9974;52.146;14.668;2023-07-20T07:57:07;4.90;;;3.28;;
19651;SDS011;9974;52.146;14.668;2023-07-20T07:59:33;5.53;;;3.63;;
19651;SDS011;9974;52.146;14.668;2023-07-20T08:02:03;5.30;;;3.28;;
19651;SDS011;9974;52.146;14.668;2023-07-20T08:04:30;4.68;;;3.17;;
19651;SDS011;9974;52.146;14.668;2023-07-20T08:06:56;5.20;;;3.25;;
19651;SDS011;9974;52.146;14.668;2023-07-20T08:09:22;4.65;;;3.08;;
19651;SDS011;9974;52.146;14.668;2023-07-20T08:11:48;4.75;;;3.33;;
19651;SDS011;9974;52.146;14.668;2023-07-20T08:14:14;5.97;;;3.30;;
19651;SDS011;9974;52.146;14.668;2023-07-20T08:16:41;3.75;;;2.83;;
19651;SDS011;9974;52.146;14.668;2023-07-20T08:19:06;6.60;;;3.10;;
19651;SDS011;9974;52.146;14.668;2023-07-20T08:21:32;3.65;;;2.33;;
19651;SDS011;9974;52.146;14.668;2023-07-20T08:23:58;5.25;;;2.45;;
19651;SDS011;9974;52.146;14.668;2023-07-20T08:26:24;4.82;;;2.58;;
19651;SDS011;9974;52.146;14.668;2023-07-20T08:28:50;4.60;;;2.40;;
19651;SDS011;9974;52.146;14.668;2023-07-20T08:31:15;3.42;;;2.10;;
19651;SDS011;9974;52.146;14.668;2023-07-20T08:33:41;5.53;;;2.47;;
19651;SDS011;9974;52.146;14.668;2023-07-20T08:36:08;8.35;;;3.03;;
19651;SDS011;9974;52.146;14.668;2023-07-20T08:38:33;5.47;;;3.00;;
19651;SDS011;9974;52.146;14.668;2023-07-20T08:40:59;4.13;;;2.50;;
19651;SDS011;9974;52.146;14.668;2023-07-20T08:43:27;4.47;;;3.03;;
19651;SDS011;9974;52.146;14.668;2023-07-20T08:45:53;4.70;;;2.58;;
19651;SDS011;9974;52.146;14.668;2023-07-20T08:48:21;3.33;;;2.25;;
19651;SDS011;9974;52.146;14.668;2023-07-20T08:50:49;2.35;;;1.90;;
19651;SDS011;9974;52.146;14.668;2023-07-20T08:53:17;3.05;;;2.13;;
19651;SDS011;9974;52.146;14.668;2023-07-20T08:55:44;7.28;;;2.15;;
19651;SDS011;9974;52.146;14.668;2023-07-20T08:58:12;4.95;;;2.50;;
19651;SDS011;9974;52.146;14.668;2023-07-20T09:00:39;2.75;;;1.92;;
19651;SDS011;9974;52.146;14.668;2023-07-20T09:03:06;2.83;;;2.03;;
19651;SDS011;9974;52.146;14.668;2023-07-20T09:05:33;2.22;;;1.80;;
19651;SDS011;9974;52.146;14.668;2023-07-20T09:08:00;4.80;;;2.72;;
19651;SDS011;9974;52.146;14.668;2023-07-20T09:10:28;3.92;;;2.03;;
19651;SDS011;9974;52.146;14.668;2023-07-20T09:12:54;2.13;;;1.65;;
19651;SDS011;9974;52.146;14.668;2023-07-20T09:15:21;4.22;;;2.20;;
19651;SDS011;9974;52.146;14.668;2023-07-20T09:17:51;2.75;;;1.98;;
19651;SDS011;9974;52.146;14.668;2023-07-20T09:20:18;3.92;;;1.73;;
19651;SDS011;9974;52.146;14.668;2023-07-20T09:22:45;4.18;;;2.17;;
19651;SDS011;9974;52.146;14.668;2023-07-20T09:25:11;2.65;;;1.50;;
19651;SDS011;9974;52.146;14.668;2023-07-20T09:27:43;2.72;;;1.92;;
19651;SDS011;9974;52.146;14.668;2023-07-20T09:30:10;4.53;;;1.60;;
19651;SDS011;9974;52.146;14.668;2023-07-20T09:32:39;3.15;;;1.73;;
19651;SDS011;9974;52.146;14.668;2023-07-20T09:35:16;2.40;;;1.55;;
19651;SDS011;9974;52.146;14.668;2023-07-20T09:37:50;2.20;;;1.48;;
19651;SDS011;9974;52.146;14.668;2023-07-20T09:40:26;2.05;;;1.55;;
19651;SDS011;9974;52.146;14.668;2023-07-20T09:42:53;3.78;;;1.48;;
19651;SDS011;9974;52.146;14.668;2023-07-20T09:48:23;1.58;;;1.40;;
19651;SDS011;9974;52.146;14.668;2023-07-20T09:50:51;3.35;;;2.28;;
19651;SDS011;9974;52.146;14.668;2023-07-20T09:53:17;2.58;;;1.55;;
19651;SDS011;9974;52.146;14.668;2023-07-20T09:55:44;2.05;;;1.45;;
19651;SDS011;9974;52.146;14.668;2023-07-20T09:58:12;2.67;;;1.60;;
19651;SDS011;9974;52.146;14.668;2023-07-20T10:00:39;4.88;;;1.83;;
19651;SDS011;9974;52.146;14.668;2023-07-20T10:03:10;2.35;;;1.58;;
19651;SDS011;9974;52.146;14.668;2023-07-20T10:05:40;2.40;;;1.70;;
19651;SDS011;9974;52.146;14.668;2023-07-20T10:08:12;1.73;;;1.40;;
19651;SDS011;9974;52.146;14.668;2023-07-20T10:10:41;2.17;;;1.40;;
19651;SDS011;9974;52.146;14.668;2023-07-20T10:13:12;1.92;;;1.40;;
19651;SDS011;9974;52.146;14.668;2023-07-20T10:15:43;1.42;;;1.30;;
19651;SDS011;9974;52.146;14.668;2023-07-20T10:18:14;2.97;;;1.70;;
19651;SDS011;9974;52.146;14.668;2023-07-20T10:20:54;2.08;;;1.58;;
19651;SDS011;9974;52.146;14.668;2023-07-20T10:23:22;1.42;;;1.33;;
19651;SDS011;9974;52.146;14.668;2023-07-20T10:25:48;1.88;;;1.38;;
19651;SDS011;9974;52.146;14.668;2023-07-20T10:28:15;1.15;;;1.00;;
19651;SDS011;9974;52.146;14.668;2023-07-20T10:30:41;2.40;;;0.90;;
19651;SDS011;9974;52.146;14.668;2023-07-20T10:33:08;1.60;;;1.17;;
19651;SDS011;9974;52.146;14.668;2023-07-20T10:35:53;1.33;;;1.10;;
19651;SDS011;9974;52.146;14.668;2023-07-20T10:41:21;1.58;;;0.98;;
19651;SDS011;9974;52.146;14.668;2023-07-20T10:43:57;2.15;;;0.98;;
19651;SDS011;9974;52.146;14.668;2023-07-20T10:49:10;1.75;;;1.23;;
19651;SDS011;9974;52.146;14.668;2023-07-20T10:51:47;1.80;;;1.33;;
19651;SDS011;9974;52.146;14.668;2023-07-20T10:56:51;0.88;;;0.82;;
19651;SDS011;9974;52.146;14.668;2023-07-20T10:59:18;1.05;;;0.80;;
19651;SDS011;9974;52.146;14.668;2023-07-20T11:01:47;1.35;;;0.85;;
19651;SDS011;9974;52.146;14.668;2023-07-20T11:04:16;0.65;;;0.60;;
19651;SDS011;9974;52.146;14.668;2023-07-20T11:06:44;1.63;;;0.63;;
19651;SDS011;9974;52.146;14.668;2023-07-20T11:09:11;0.88;;;0.70;;
19651;SDS011;9974;52.146;14.668;2023-07-20T11:11:40;1.40;;;0.80;;
19651;SDS011;9974;52.146;14.668;2023-07-20T11:14:09;0.88;;;0.73;;
19651;SDS011;9974;52.146;14.668;2023-07-20T11:16:49;0.88;;;0.70;;
19651;SDS011;9974;52.146;14.668;2023-07-20T11:19:20;0.98;;;0.80;;
19651;SDS011;9974;52.146;14.668;2023-07-20T11:21:51;1.23;;;0.40;;
19651;SDS011;9974;52.146;14.668;2023-07-20T11:24:21;2.00;;;0.50;;
19651;SDS011;9974;52.146;14.668;2023-07-20T11:26:48;0.75;;;0.60;;
19651;SDS011;9974;52.146;14.668;2023-07-20T11:29:17;0.50;;;0.50;;
19651;SDS011;9974;52.146;14.668;2023-07-20T11:31:48;4.53;;;0.95;;
19651;SDS011;9974;52.146;14.668;2023-07-20T11:34:14;0.52;;;0.40;;
19651;SDS011;9974;52.146;14.668;2023-07-20T11:36:43;0.28;;;0.25;;
19651;SDS011;9974;52.146;14.668;2023-07-20T11:39:10;1.52;;;0.70;;
19651;SDS011;9974;52.146;14.668;2023-07-20T11:41:43;1.30;;;0.90;;
19651;SDS011;9974;52.146;14.668;2023-07-20T11:44:12;0.22;;;0.22;;
19651;SDS011;9974;52.146;14.668;2023-07-20T11:46:40;0.73;;;0.47;;
19651;SDS011;9974;52.146;14.668;2023-07-20T11:49:07;0.65;;;0.50;;
19651;SDS011;9974;52.146;14.668;2023-07-20T11:51:33;1.85;;;0.30;;
19651;SDS011;9974;52.146;14.668;2023-07-20T11:54:00;0.52;;;0.52;;
19651;SDS011;9974;52.146;14.668;2023-07-20T11:56:27;0.20;;;0.20;;
19651;SDS011;9974;52.146;14.668;2023-07-20T11:58:59;0.43;;;0.28;;
19651;SDS011;9974;52.146;14.668;2023-07-20T12:01:27;0.20;;;0.20;;
19651;SDS011;9974;52.146;14.668;2023-07-20T12:04:01;0.52;;;0.30;;
19651;SDS011;9974;52.146;14.668;2023-07-20T12:06:28;1.27;;;0.40;;
19651;SDS011;9974;52.146;14.668;2023-07-20T12:08:58;3.30;;;0.40;;
19651;SDS011;9974;52.146;14.668;2023-07-20T12:11:31;3.97;;;0.38;;
19651;SDS011;9974;52.146;14.668;2023-07-20T12:14:02;1.77;;;0.90;;
19651;SDS011;9974;52.146;14.668;2023-07-20T12:16:29;2.25;;;1.10;;
19651;SDS011;9974;52.146;14.668;2023-07-20T12:18:59;0.32;;;0.28;;
19651;SDS011;9974;52.146;14.668;2023-07-20T12:21:27;0.50;;;0.40;;
19651;SDS011;9974;52.146;14.668;2023-07-20T12:23:55;0.63;;;0.30;;
19651;SDS011;9974;52.146;14.668;2023-07-20T12:26:22;0.30;;;0.20;;
19651;SDS011;9974;52.146;14.668;2023-07-20T12:28:49;0.20;;;0.20;;
19651;SDS011;9974;52.146;14.668;2023-07-20T12:31:15;0.40;;;0.20;;
19651;SDS011;9974;52.146;14.668;2023-07-20T12:33:41;0.28;;;0.20;;
19651;SDS011;9974;52.146;14.668;2023-07-20T12:36:08;0.55;;;0.30;;
19651;SDS011;9974;52.146;14.668;2023-07-20T12:38:34;0.20;;;0.20;;
19651;SDS011;9974;52.146;14.668;2023-07-20T12:41:01;0.30;;;0.30;;
19651;SDS011;9974;52.146;14.668;2023-07-20T12:43:27;0.20;;;0.20;;
19651;SDS011;9974;52.146;14.668;2023-07-20T12:45:53;0.20;;;0.20;;
19651;SDS011;9974;52.146;14.668;2023-07-20T12:48:19;0.45;;;0.43;;
19651;SDS011;9974;52.146;14.668;2023-07-20T12:50:45;0.80;;;0.47;;
19651;SDS011;9974;52.146;14.668;2023-07-20T12:53:11;0.32;;;0.32;;
19651;SDS011;9974;52.146;14.668;2023-07-20T12:55:37;0.43;;;0.43;;
19651;SDS011;9974;52.146;14.668;2023-07-20T12:58:05;1.27;;;0.30;;
19651;SDS011;9974;52.146;14.668;2023-07-20T13:00:31;1.67;;;0.70;;
19651;SDS011;9974;52.146;14.668;2023-07-20T13:02:57;0.55;;;0.35;;
19651;SDS011;9974;52.146;14.668;2023-07-20T13:05:23;0.40;;;0.40;;
19651;SDS011;9974;52.146;14.668;2023-07-20T13:07:49;0.73;;;0.30;;
19651;SDS011;9974;52.146;14.668;2023-07-20T13:10:15;0.28;;;0.28;;
19651;SDS011;9974;52.146;14.668;2023-07-20T13:12:41;0.30;;;0.30;;
19651;SDS011;9974;52.146;14.668;2023-07-20T13:15:07;0.22;;;0.20;;
19651;SDS011;9974;52.146;14.668;2023-07-20T13:17:35;0.20;;;0.20;;
19651;SDS011;9974;52.146;14.668;2023-07-20T13:20:04;0.43;;;0.30;;
19651;SDS011;9974;52.146;14.668;2023-07-20T13:22:32;0.35;;;0.35;;
19651;SDS011;9974;52.146;14.668;2023-07-20T13:24:59;0.52;;;0.30;;
19651;SDS011;9974;52.146;14.668;2023-07-20T13:27:24;0.20;;;0.20;;
19651;SDS011;9974;52.146;14.668;2023-07-20T13:29:51;1.60;;;0.32;;
19651;SDS011;9974;52.146;14.668;2023-07-20T13:32:17;0.35;;;0.35;;
19651;SDS011;9974;52.146;14.668;2023-07-20T13:34:44;0.20;;;0.20;;
19651;SDS011;9974;52.146;14.668;2023-07-20T13:37:10;0.40;;;0.40;;
19651;SDS011;9974;52.146;14.668;2023-07-20T13:39:37;1.20;;;0.40;;
19651;SDS011;9974;52.146;14.668;2023-07-20T13:42:03;0.30;;;0.30;;
19651;SDS011;9974;52.146;14.668;2023-07-20T13:44:30;1.08;;;0.40;;
19651;SDS011;9974;52.146;14.668;2023-07-20T13:46:59;0.38;;;0.38;;
19651;SDS011;9974;52.146;14.668;2023-07-20T13:49:26;0.22;;;0.22;;
19651;SDS011;9974;52.146;14.668;2023-07-20T13:51:52;0.50;;;0.35;;
19651;SDS011;9974;52.146;14.668;2023-07-20T13:54:18;0.68;;;0.20;;
19651;SDS011;9974;52.146;14.668;2023-07-20T13:56:43;0.20;;;0.20;;
19651;SDS011;9974;52.146;14.668;2023-07-20T13:59:09;0.20;;;0.20;;
19651;SDS011;9974;52.146;14.668;2023-07-20T14:01:36;3.22;;;0.20;;
19651;SDS011;9974;52.146;14.668;2023-07-20T14:04:02;0.10;;;0.10;;
19651;SDS011;9974;52.146;14.668;2023-07-20T14:06:29;0.20;;;0.20;;
19651;SDS011;9974;52.146;14.668;2023-07-20T14:08:57;0.55;;;0.40;;
19651;SDS011;9974;52.146;14.668;2023-07-20T14:11:23;0.20;;;0.20;;
19651;SDS011;9974;52.146;14.668;2023-07-20T14:13:52;0.40;;;0.40;;
19651;SDS011;9974;52.146;14.668;2023-07-20T14:16:18;0.20;;;0.20;;
19651;SDS011;9974;52.146;14.668;2023-07-20T14:18:45;0.17;;;0.17;;
19651;SDS011;9974;52.146;14.668;2023-07-20T14:21:17;0.70;;;0.30;;
19651;SDS011;9974;52.146;14.668;2023-07-20T14:23:45;0.93;;;0.30;;
19651;SDS011;9974;52.146;14.668;2023-07-20T14:26:12;7.93;;;0.47;;
19651;SDS011;9974;52.146;14.668;2023-07-20T14:28:38;1.20;;;0.40;;
19651;SDS011;9974;52.146;14.668;2023-07-20T14:31:04;0.38;;;0.30;;
19651;SDS011;9974;52.146;14.668;2023-07-20T14:33:30;0.80;;;0.20;;
19651;SDS011;9974;52.146;14.668;2023-07-20T14:35:56;1.35;;;0.30;;
19651;SDS011;9974;52.146;14.668;2023-07-20T14:38:22;2.80;;;0.40;;
19651;SDS011;9974;52.146;14.668;2023-07-20T14:40:47;1.40;;;0.30;;
19651;SDS011;9974;52.146;14.668;2023-07-20T14:43:13;0.13;;;0.13;;
19651;SDS011;9974;52.146;14.668;2023-07-20T14:45:40;0.20;;;0.20;;
19651;SDS011;9974;52.146;14.668;2023-07-20T14:48:06;0.20;;;0.20;;
19651;SDS011;9974;52.146;14.668;2023-07-20T14:50:32;1.08;;;0.50;;
19651;SDS011;9974;52.146;14.668;2023-07-20T14:52:58;0.28;;;0.20;;
19651;SDS011;9974;52.146;14.668;2023-07-20T14:55:24;0.20;;;0.20;;
19651;SDS011;9974;52.146;14.668;2023-07-20T14:57:50;0.20;;;0.20;;
19651;SDS011;9974;52.146;14.668;2023-07-20T15:00:16;0.52;;;0.30;;
19651;SDS011;9974;52.146;14.668;2023-07-20T15:02:42;0.55;;;0.20;;
19651;SDS011;9974;52.146;14.668;2023-07-20T15:05:09;0.20;;;0.20;;
19651;SDS011;9974;52.146;14.668;2023-07-20T15:07:35;0.40;;;0.25;;
19651;SDS011;9974;52.146;14.668;2023-07-20T15:10:02;0.38;;;0.30;;